sensor_id;sensor_type;location;lat;lon;timestamp;pressure;altitude;pressure_sealevel;temperature;humidity
60087;BME280;45960;53.630;55.972;2023-07-29T00:00:47;99537.44;;;25.72;50.84
60087;BME280;45960;53.630;55.972;2023-07-29T00:01:48;99525.47;;;25.66;50.87
60087;BME280;45960;53.630;55.972;2023-07-29T00:02:50;99538.91;;;25.67;50.89
60087;BME280;45960;53.630;55.972;2023-07-29T00:03:51;99541.66;;;25.67;51.00
60087;BME280;45960;53.630;55.972;2023-07-29T00:04:52;99533.44;;;25.67;50.92
60087;BME280;45960;53.630;55.972;2023-07-29T00:05:53;99545.47;;;25.66;51.00
60087;BME280;45960;53.630;55.972;2023-07-29T00:06:54;99533.03;;;25.64;51.19
60087;BME280;45960;53.630;55.972;2023-07-29T00:07:55;99542.31;;;25.63;51.15
60087;BME280;45960;53.630;55.972;2023-07-29T00:08:56;99543.16;;;25.63;51.30
60087;BME280;45960;53.630;55.972;2023-07-29T00:09:57;99537.25;;;25.60;51.23
60087;BME280;45960;53.630;55.972;2023-07-29T00:10:59;99542.53;;;25.61;51.35
60087;BME280;45960;53.630;55.972;2023-07-29T00:12:00;99544.44;;;25.61;51.30
60087;BME280;45960;53.630;55.972;2023-07-29T00:13:01;99540.22;;;25.58;51.21
60087;BME280;45960;53.630;55.972;2023-07-29T00:14:02;99556.63;;;25.58;51.11
60087;BME280;45960;53.630;55.972;2023-07-29T00:15:03;99548.63;;;25.57;51.07
60087;BME280;45960;53.630;55.972;2023-07-29T00:16:05;99548.63;;;25.57;51.30
60087;BME280;45960;53.630;55.972;2023-07-29T00:17:06;99547.78;;;25.56;51.16
60087;BME280;45960;53.630;55.972;2023-07-29T00:18:07;99551.59;;;25.55;51.12
60087;BME280;45960;53.630;55.972;2023-07-29T00:19:08;99544.44;;;25.54;51.39
60087;BME280;45960;53.630;55.972;2023-07-29T00:20:09;99552.03;;;25.52;51.02
60087;BME280;45960;53.630;55.972;2023-07-29T00:21:10;99552.03;;;25.52;51.36
60087;BME280;45960;53.630;55.972;2023-07-29T00:22:12;99564.00;;;25.51;51.21
60087;BME280;45960;53.630;55.972;2023-07-29T00:23:13;99563.16;;;25.51;51.19
60087;BME280;45960;53.630;55.972;2023-07-29T00:24:14;99556.66;;;25.52;51.29
60087;BME280;45960;53.630;55.972;2023-07-29T00:25:15;99544.06;;;25.37;51.29
60087;BME280;45960;53.630;55.972;2023-07-29T00:26:17;99563.41;;;25.49;51.25
60087;BME280;45960;53.630;55.972;2023-07-29T00:27:18;99549.31;;;25.39;51.17
60087;BME280;45960;53.630;55.972;2023-07-29T00:28:19;99558.97;;;25.48;51.26
60087;BME280;45960;53.630;55.972;2023-07-29T00:29:20;99563.41;;;25.49;51.32
60087;BME280;45960;53.630;55.972;2023-07-29T00:30:21;99565.28;;;25.49;51.52
60087;BME280;45960;53.630;55.972;2023-07-29T00:31:22;99563.59;;;25.48;51.34
60087;BME280;45960;53.630;55.972;2023-07-29T00:32:29;99563.84;;;25.46;51.26
60087;BME280;45960;53.630;55.972;2023-07-29T00:33:30;99564.66;;;25.47;51.55
60087;BME280;45960;53.630;55.972;2023-07-29T00:34:31;99563.84;;;25.46;51.48
60087;BME280;45960;53.630;55.972;2023-07-29T00:35:32;99568.44;;;25.45;51.38
60087;BME280;45960;53.630;55.972;2023-07-29T00:36:35;99556.66;;;25.45;51.41
60087;BME280;45960;53.630;55.972;2023-07-29T00:37:36;99564.22;;;25.43;51.42
60087;BME280;45960;53.630;55.972;2023-07-29T00:38:39;99571.41;;;25.44;51.40
60087;BME280;45960;53.630;55.972;2023-07-29T00:39:40;99555.88;;;25.38;51.61
60087;BME280;45960;53.630;55.972;2023-07-29T00:40:43;99566.38;;;25.41;51.67
60087;BME280;45960;53.630;55.972;2023-07-29T00:41:44;99563.63;;;25.41;51.92
60087;BME280;45960;53.630;55.972;2023-07-29T00:42:45;99570.13;;;25.40;51.84
60087;BME280;45960;53.630;55.972;2023-07-29T00:43:47;99568.47;;;25.39;51.51
60087;BME280;45960;53.630;55.972;2023-07-29T00:44:48;99573.94;;;25.39;51.72
60087;BME280;45960;53.630;55.972;2023-07-29T00:45:49;99558.16;;;25.34;51.76
60087;BME280;45960;53.630;55.972;2023-07-29T00:46:52;99565.94;;;25.37;51.79
60087;BME280;45960;53.630;55.972;2023-07-29T00:47:54;99560.91;;;25.34;51.89
60087;BME280;45960;53.630;55.972;2023-07-29T00:48:56;99570.56;;;25.37;51.65
60087;BME280;45960;53.630;55.972;2023-07-29T00:50:00;99571.63;;;25.36;51.78
60087;BME280;45960;53.630;55.972;2023-07-29T00:51:01;99579.84;;;25.36;52.08
60087;BME280;45960;53.630;55.972;2023-07-29T00:52:02;99555.44;;;25.28;51.98
60087;BME280;45960;53.630;55.972;2023-07-29T00:53:03;99569.31;;;25.33;52.00
60087;BME280;45960;53.630;55.972;2023-07-29T00:54:04;99573.09;;;25.32;52.12
60087;BME280;45960;53.630;55.972;2023-07-29T00:55:06;99573.09;;;25.32;52.10
60087;BME280;45960;53.630;55.972;2023-07-29T00:56:07;99567.03;;;25.30;52.14
60087;BME280;45960;53.630;55.972;2023-07-29T00:57:09;99571.44;;;25.31;52.14
60087;BME280;45960;53.630;55.972;2023-07-29T00:58:12;99568.69;;;25.31;52.11
60087;BME280;45960;53.630;55.972;2023-07-29T00:59:13;99573.09;;;25.32;51.82
60087;BME280;45960;53.630;55.972;2023-07-29T01:00:15;99565.97;;;25.31;51.77
60087;BME280;45960;53.630;55.972;2023-07-29T01:01:17;99569.75;;;25.30;51.82
60087;BME280;45960;53.630;55.972;2023-07-29T01:02:18;99574.38;;;25.29;51.92
60087;BME280;45960;53.630;55.972;2023-07-29T01:03:19;99569.13;;;25.28;52.20
60087;BME280;45960;53.630;55.972;2023-07-29T01:04:20;99574.59;;;25.28;52.10
60087;BME280;45960;53.630;55.972;2023-07-29T01:05:21;99576.69;;;25.26;52.12
60087;BME280;45960;53.630;55.972;2023-07-29T01:09:01;99576.28;;;25.22;52.15
60087;BME280;45960;53.630;55.972;2023-07-29T01:10:14;99577.13;;;25.22;52.12
60087;BME280;45960;53.630;55.972;2023-07-29T01:11:39;99571.00;;;25.20;52.15
60087;BME280;45960;53.630;55.972;2023-07-29T01:13:30;99579.22;;;25.20;52.16
60087;BME280;45960;53.630;55.972;2023-07-29T01:14:49;99576.47;;;25.20;52.22
60087;BME280;45960;53.630;55.972;2023-07-29T01:17:00;99585.31;;;25.22;52.22
60087;BME280;45960;53.630;55.972;2023-07-29T01:18:12;99580.91;;;25.21;52.21
60087;BME280;45960;53.630;55.972;2023-07-29T01:20:47;99575.63;;;25.13;52.33
60087;BME280;45960;53.630;55.972;2023-07-29T01:21:49;99584.47;;;25.22;52.34
60087;BME280;45960;53.630;55.972;2023-07-29T01:22:51;99587.84;;;25.24;52.48
60087;BME280;45960;53.630;55.972;2023-07-29T01:23:52;99584.88;;;25.26;52.56
60087;BME280;45960;53.630;55.972;2023-07-29T01:24:54;99593.72;;;25.28;52.54
60087;BME280;45960;53.630;55.972;2023-07-29T01:25:55;99589.09;;;25.28;52.58
60087;BME280;45960;53.630;55.972;2023-07-29T01:26:56;99589.94;;;25.29;52.59
60087;BME280;45960;53.630;55.972;2023-07-29T01:27:57;99591.63;;;25.30;52.51
60087;BME280;45960;53.630;55.972;2023-07-29T01:28:59;99596.66;;;25.33;52.26
60087;BME280;45960;53.630;55.972;2023-07-29T01:30:01;99594.97;;;25.32;52.29
60087;BME280;45960;53.630;55.972;2023-07-29T01:31:27;99594.13;;;25.31;52.23
60087;BME280;45960;53.630;55.972;2023-07-29T01:33:55;99600.44;;;25.32;52.73
60087;BME280;45960;53.630;55.972;2023-07-29T01:35:04;99602.13;;;25.33;52.67
60087;BME280;45960;53.630;55.972;2023-07-29T01:36:11;99602.97;;;25.33;52.61
60087;BME280;45960;53.630;55.972;2023-07-29T01:37:17;99602.78;;;25.35;52.54
60087;BME280;45960;53.630;55.972;2023-07-29T01:38:33;99601.72;;;25.36;52.48
60087;BME280;45960;53.630;55.972;2023-07-29T01:39:36;99599.63;;;25.38;52.87
60087;BME280;45960;53.630;55.972;2023-07-29T01:40:39;99605.09;;;25.38;52.73
60087;BME280;45960;53.630;55.972;2023-07-29T01:41:42;99605.91;;;25.38;52.51
60087;BME280;45960;53.630;55.972;2023-07-29T01:42:44;99612.22;;;25.39;52.21
60087;BME280;45960;53.630;55.972;2023-07-29T01:43:48;99614.97;;;25.39;52.45
60087;BME280;45960;53.630;55.972;2023-07-29T01:44:49;99612.22;;;25.39;52.41
60087;BME280;45960;53.630;55.972;2023-07-29T01:45:50;99613.06;;;25.39;52.57
60087;BME280;45960;53.630;55.972;2023-07-29T01:46:51;99607.59;;;25.39;52.41
60087;BME280;45960;53.630;55.972;2023-07-29T01:47:52;99613.88;;;25.40;52.00
60087;BME280;45960;53.630;55.972;2023-07-29T01:48:54;99610.13;;;25.41;52.20
60087;BME280;45960;53.630;55.972;2023-07-29T01:49:55;99610.13;;;25.41;52.15
60087;BME280;45960;53.630;55.972;2023-07-29T01:50:56;99601.06;;;25.34;52.09
60087;BME280;45960;53.630;55.972;2023-07-29T01:51:57;99612.63;;;25.42;51.87
60087;BME280;45960;53.630;55.972;2023-07-29T01:52:59;99608.00;;;25.43;51.85
60087;BME280;45960;53.630;55.972;2023-07-29T01:53:59;99617.91;;;25.44;51.61
60087;BME280;45960;53.630;55.972;2023-07-29T01:55:01;99609.69;;;25.44;51.76
60087;BME280;45960;53.630;55.972;2023-07-29T01:56:02;99602.34;;;25.38;51.74
60087;BME280;45960;53.630;55.972;2023-07-29T01:57:04;99613.06;;;25.46;51.80
60087;BME280;45960;53.630;55.972;2023-07-29T01:58:05;99607.59;;;25.46;51.77
60087;BME280;45960;53.630;55.972;2023-07-29T01:59:09;99598.31;;;25.47;51.30
60087;BME280;45960;53.630;55.972;2023-07-29T02:00:10;99605.47;;;25.48;51.36
60087;BME280;45960;53.630;55.972;2023-07-29T02:01:18;99608.19;;;25.48;51.26
60087;BME280;45960;53.630;55.972;2023-07-29T02:02:20;99601.69;;;25.49;51.49
60087;BME280;45960;53.630;55.972;2023-07-29T02:03:21;99597.91;;;25.50;51.43
60087;BME280;45960;53.630;55.972;2023-07-29T02:04:21;99599.56;;;25.51;51.19
60087;BME280;45960;53.630;55.972;2023-07-29T02:05:23;99597.91;;;25.50;51.04
60087;BME280;45960;53.630;55.972;2023-07-29T02:06:24;99596.22;;;25.49;50.98
60087;BME280;45960;53.630;55.972;2023-07-29T02:07:25;99597.25;;;25.48;51.28
60087;BME280;45960;53.630;55.972;2023-07-29T02:08:27;99597.91;;;25.50;51.25
60087;BME280;45960;53.630;55.972;2023-07-29T02:09:29;99599.56;;;25.51;51.35
60087;BME280;45960;53.630;55.972;2023-07-29T02:10:31;99600.44;;;25.52;51.31
60087;BME280;45960;53.630;55.972;2023-07-29T02:11:32;99599.38;;;25.53;51.29
60087;BME280;45960;53.630;55.972;2023-07-29T02:12:33;99594.53;;;25.55;51.31
60087;BME280;45960;53.630;55.972;2023-07-29T02:13:36;99600.00;;;25.55;51.30
60087;BME280;45960;53.630;55.972;2023-07-29T02:14:37;99586.53;;;25.53;51.43
60087;BME280;45960;53.630;55.972;2023-07-29T02:15:38;99589.91;;;25.55;51.19
60087;BME280;45960;53.630;55.972;2023-07-29T02:16:39;99586.53;;;25.53;51.39
60087;BME280;45960;53.630;55.972;2023-07-29T02:18:00;99588.19;;;25.54;51.32
60087;BME280;45960;53.630;55.972;2023-07-29T02:19:02;99584.00;;;25.58;51.28
60087;BME280;45960;53.630;55.972;2023-07-29T02:20:04;99584.00;;;25.58;51.28
60087;BME280;45960;53.630;55.972;2023-07-29T02:21:05;99584.00;;;25.58;51.29
60087;BME280;45960;53.630;55.972;2023-07-29T02:22:06;99580.19;;;25.59;51.41
60087;BME280;45960;53.630;55.972;2023-07-29T02:23:07;99590.69;;;25.62;51.21
60087;BME280;45960;53.630;55.972;2023-07-29T02:24:08;99590.69;;;25.62;51.08
60087;BME280;45960;53.630;55.972;2023-07-29T02:25:09;99590.69;;;25.62;51.24
60087;BME280;45960;53.630;55.972;2023-07-29T02:26:10;99593.44;;;25.62;51.34
60087;BME280;45960;53.630;55.972;2023-07-29T02:27:11;99589.44;;;25.65;51.15
60087;BME280;45960;53.630;55.972;2023-07-29T02:28:12;99591.97;;;25.66;51.39
60087;BME280;45960;53.630;55.972;2023-07-29T02:29:14;99589.84;;;25.68;51.33
60087;BME280;45960;53.630;55.972;2023-07-29T02:30:15;99590.69;;;25.69;51.51
60087;BME280;45960;53.630;55.972;2023-07-29T02:31:24;99587.72;;;25.71;51.45
60087;BME280;45960;53.630;55.972;2023-07-29T02:32:25;99585.63;;;25.73;51.47
60087;BME280;45960;53.630;55.972;2023-07-29T02:33:26;99599.94;;;25.75;51.29
60087;BME280;45960;53.630;55.972;2023-07-29T02:34:27;99590.66;;;25.76;51.41
60087;BME280;45960;53.630;55.972;2023-07-29T02:35:28;99588.75;;;25.76;51.31
60087;BME280;45960;53.630;55.972;2023-07-29T02:36:30;99593.59;;;25.81;51.40
60087;BME280;45960;53.630;55.972;2023-07-29T02:37:31;99593.19;;;25.84;51.44
60087;BME280;45960;53.630;55.972;2023-07-29T02:38:32;99590.25;;;25.85;51.31
60087;BME280;45960;53.630;55.972;2023-07-29T02:39:34;99594.47;;;25.88;51.35
60087;BME280;45960;53.630;55.972;2023-07-29T02:40:35;99594.03;;;25.91;51.17
60087;BME280;45960;53.630;55.972;2023-07-29T02:41:36;99545.25;;;25.61;51.55
60087;BME280;45960;53.630;55.972;2023-07-29T02:42:37;99600.72;;;25.95;51.40
60087;BME280;45960;53.630;55.972;2023-07-29T02:43:39;99595.88;;;25.97;51.42
60087;BME280;45960;53.630;55.972;2023-07-29T02:44:42;99597.34;;;26.00;51.61
60087;BME280;45960;53.630;55.972;2023-07-29T02:45:43;99596.06;;;26.02;51.62
60087;BME280;45960;53.630;55.972;2023-07-29T02:46:44;99596.69;;;26.04;51.35
60087;BME280;45960;53.630;55.972;2023-07-29T02:47:45;99597.94;;;26.08;51.54
60087;BME280;45960;53.630;55.972;2023-07-29T02:48:47;99589.72;;;26.08;51.72
60087;BME280;45960;53.630;55.972;2023-07-29T02:49:48;99593.69;;;26.12;51.61
60087;BME280;45960;53.630;55.972;2023-07-29T02:50:49;99588.84;;;26.15;51.57
60087;BME280;45960;53.630;55.972;2023-07-29T02:51:50;99588.41;;;26.18;51.12
60087;BME280;45960;53.630;55.972;2023-07-29T02:52:51;99575.38;;;26.13;51.25
60087;BME280;45960;53.630;55.972;2023-07-29T02:53:53;99583.31;;;26.21;51.50
60087;BME280;45960;53.630;55.972;2023-07-29T02:54:54;99584.78;;;26.24;51.52
60087;BME280;45960;53.630;55.972;2023-07-29T02:55:55;99581.59;;;26.27;51.61
60087;BME280;45960;53.630;55.972;2023-07-29T02:56:55;99573.63;;;26.25;51.72
60087;BME280;45960;53.630;55.972;2023-07-29T02:57:57;99578.22;;;26.31;51.47
60087;BME280;45960;53.630;55.972;2023-07-29T02:58:58;99576.94;;;26.34;51.66
60087;BME280;45960;53.630;55.972;2023-07-29T03:00:00;99577.34;;;26.38;51.59
60087;BME280;45960;53.630;55.972;2023-07-29T03:01:03;99576.06;;;26.40;51.33
60087;BME280;45960;53.630;55.972;2023-07-29T03:02:04;99576.69;;;26.42;51.19
60087;BME280;45960;53.630;55.972;2023-07-29T03:03:05;99574.34;;;26.46;51.14
60087;BME280;45960;53.630;55.972;2023-07-29T03:04:07;99578.13;;;26.51;51.29
60087;BME280;45960;53.630;55.972;2023-07-29T03:05:08;99565.06;;;26.53;51.17
60087;BME280;45960;53.630;55.972;2023-07-29T03:06:11;99569.88;;;26.58;50.83
60087;BME280;45960;53.630;55.972;2023-07-29T03:07:12;99563.31;;;26.59;51.07
60087;BME280;45960;53.630;55.972;2023-07-29T03:08:14;99568.34;;;26.62;50.99
60087;BME280;45960;53.630;55.972;2023-07-29T03:09:15;99572.56;;;26.65;50.87
60087;BME280;45960;53.630;55.972;2023-07-29T03:10:16;99569.81;;;26.65;50.61
60087;BME280;45960;53.630;55.972;2023-07-29T03:11:17;99567.69;;;26.67;50.74
60087;BME280;45960;53.630;55.972;2023-07-29T03:12:19;99568.31;;;26.69;50.49
60087;BME280;45960;53.630;55.972;2023-07-29T03:13:20;99571.66;;;26.71;50.57
60087;BME280;45960;53.630;55.972;2023-07-29T03:14:21;99569.56;;;26.73;50.45
60087;BME280;45960;53.630;55.972;2023-07-29T03:15:25;99565.72;;;26.74;50.53
60087;BME280;45960;53.630;55.972;2023-07-29T03:16:27;99544.78;;;26.61;50.23
60087;BME280;45960;53.630;55.972;2023-07-29T03:17:29;99568.03;;;26.77;50.34
60087;BME280;45960;53.630;55.972;2023-07-29T03:18:31;99570.31;;;26.80;50.28
60087;BME280;45960;53.630;55.972;2023-07-29T03:19:32;99569.03;;;26.83;50.58
60087;BME280;45960;53.630;55.972;2023-07-29T03:20:33;99566.09;;;26.84;50.39
60087;BME280;45960;53.630;55.972;2023-07-29T03:21:33;99569.44;;;26.86;50.15
60087;BME280;45960;53.630;55.972;2023-07-29T03:22:35;99572.78;;;26.88;50.61
60087;BME280;45960;53.630;55.972;2023-07-29T03:23:36;99572.34;;;26.91;50.12
60087;BME280;45960;53.630;55.972;2023-07-29T03:24:37;99568.56;;;26.92;50.05
60087;BME280;45960;53.630;55.972;2023-07-29T03:25:38;99571.03;;;26.94;50.18
60087;BME280;45960;53.630;55.972;2023-07-29T03:26:39;99564.28;;;26.96;50.21
60087;BME280;45960;53.630;55.972;2023-07-29T03:27:40;99570.19;;;27.00;50.08
60087;BME280;45960;53.630;55.972;2023-07-29T03:28:43;99568.84;;;27.02;49.99
60087;BME280;45960;53.630;55.972;2023-07-29T03:29:44;99565.06;;;27.04;50.01
60087;BME280;45960;53.630;55.972;2023-07-29T03:30:45;99573.47;;;27.09;49.90
60087;BME280;45960;53.630;55.972;2023-07-29T03:31:47;99576.81;;;27.11;50.14
60087;BME280;45960;53.630;55.972;2023-07-29T03:32:49;99576.34;;;27.14;50.13
60087;BME280;45960;53.630;55.972;2023-07-29T03:33:50;99570.47;;;27.17;49.90
60087;BME280;45960;53.630;55.972;2023-07-29T03:34:51;99585.41;;;27.21;50.06
60087;BME280;45960;53.630;55.972;2023-07-29T03:35:52;99581.38;;;27.23;49.80
60087;BME280;45960;53.630;55.972;2023-07-29T03:36:53;99569.41;;;27.18;49.77
60087;BME280;45960;53.630;55.972;2023-07-29T03:37:54;99573.34;;;27.22;49.89
60087;BME280;45960;53.630;55.972;2023-07-29T03:38:55;99577.97;;;27.28;49.77
60087;BME280;45960;53.630;55.972;2023-07-29T03:39:57;99583.56;;;27.33;49.61
60087;BME280;45960;53.630;55.972;2023-07-29T03:40:58;99583.38;;;27.35;49.69
60087;BME280;45960;53.630;55.972;2023-07-29T03:41:59;99588.63;;;27.36;49.42
60087;BME280;45960;53.630;55.972;2023-07-29T03:43:00;99567.75;;;27.35;49.38
60087;BME280;45960;53.630;55.972;2023-07-29T03:44:01;99571.25;;;27.42;49.58
60087;BME280;45960;53.630;55.972;2023-07-29T03:45:03;99575.66;;;27.43;49.36
60087;BME280;45960;53.630;55.972;2023-07-29T03:46:04;99578.41;;;27.43;49.24
60087;BME280;45960;53.630;55.972;2023-07-29T03:47:07;99584.53;;;27.45;49.48
60087;BME280;45960;53.630;55.972;2023-07-29T03:48:08;99583.22;;;27.48;49.64
60087;BME280;45960;53.630;55.972;2023-07-29T03:49:10;99572.47;;;27.47;49.41
60087;BME280;45960;53.630;55.972;2023-07-29T03:50:11;99578.13;;;27.52;49.56
60087;BME280;45960;53.630;55.972;2023-07-29T03:51:12;99582.06;;;27.56;49.46
60087;BME280;45960;53.630;55.972;2023-07-29T03:52:13;99580.41;;;27.55;49.32
60087;BME280;45960;53.630;55.972;2023-07-29T03:53:15;99586.06;;;27.60;49.03
60087;BME280;45960;53.630;55.972;2023-07-29T03:54:16;99580.09;;;27.63;49.20
60087;BME280;45960;53.630;55.972;2023-07-29T03:55:17;99592.28;;;27.67;49.09
60087;BME280;45960;53.630;55.972;2023-07-29T03:56:18;99591.84;;;27.70;49.08
60087;BME280;45960;53.630;55.972;2023-07-29T03:57:19;99587.78;;;27.73;48.77
60087;BME280;45960;53.630;55.972;2023-07-29T03:58:20;99593.06;;;27.74;48.99
60087;BME280;45960;53.630;55.972;2023-07-29T03:59:21;99598.09;;;27.77;48.64
60087;BME280;45960;53.630;55.972;2023-07-29T04:00:24;99596.00;;;27.79;48.84
60087;BME280;45960;53.630;55.972;2023-07-29T04:01:25;99590.03;;;27.82;48.73
60087;BME280;45960;53.630;55.972;2023-07-29T04:02:26;99592.13;;;27.87;48.82
60087;BME280;45960;53.630;55.972;2023-07-29T04:03:27;99587.00;;;27.91;49.11
60087;BME280;45960;53.630;55.972;2023-07-29T04:04:29;99582.13;;;27.93;48.87
60087;BME280;45960;53.630;55.972;2023-07-29T04:05:31;99589.88;;;27.96;48.94
60087;BME280;45960;53.630;55.972;2023-07-29T04:06:32;99581.41;;;27.97;48.15
60087;BME280;45960;53.630;55.972;2023-07-29T04:07:34;99580.09;;;28.00;47.81
60087;BME280;45960;53.630;55.972;2023-07-29T04:08:35;99584.31;;;28.02;47.86
60087;BME280;45960;53.630;55.972;2023-07-29T04:09:36;99580.47;;;28.03;47.82
60087;BME280;45960;53.630;55.972;2023-07-29T04:10:37;99575.38;;;28.07;47.84
60087;BME280;45960;53.630;55.972;2023-07-29T04:11:38;99575.97;;;28.09;48.03
60087;BME280;45960;53.630;55.972;2023-07-29T04:12:40;99582.06;;;28.11;47.83
60087;BME280;45960;53.630;55.972;2023-07-29T04:13:41;99572.78;;;28.12;47.47
60087;BME280;45960;53.630;55.972;2023-07-29T04:14:42;99573.16;;;28.16;47.46
60087;BME280;45960;53.630;55.972;2023-07-29T04:15:43;99559.88;;;28.13;47.39
60087;BME280;45960;53.630;55.972;2023-07-29T04:16:44;99570.31;;;28.22;47.68
60087;BME280;45960;53.630;55.972;2023-07-29T04:17:46;99564.59;;;28.24;47.82
60087;BME280;45960;53.630;55.972;2023-07-29T04:18:47;99573.56;;;28.31;47.61
60087;BME280;45960;53.630;55.972;2023-07-29T04:19:48;99566.75;;;28.33;48.00
60087;BME280;45960;53.630;55.972;2023-07-29T04:20:49;99561.88;;;28.36;47.89
60087;BME280;45960;53.630;55.972;2023-07-29T04:21:50;99563.06;;;28.40;47.52
60087;BME280;45960;53.630;55.972;2023-07-29T04:22:52;99563.69;;;28.42;47.37
60087;BME280;45960;53.630;55.972;2023-07-29T04:23:53;99568.72;;;28.45;47.18
60087;BME280;45960;53.630;55.972;2023-07-29T04:24:54;99563.84;;;28.47;47.69
60087;BME280;45960;53.630;55.972;2023-07-29T04:25:55;99575.22;;;28.50;46.84
60087;BME280;45960;53.630;55.972;2023-07-29T04:26:56;99571.16;;;28.53;47.17
60087;BME280;45960;53.630;55.972;2023-07-29T04:27:57;99569.38;;;28.59;47.41
60087;BME280;45960;53.630;55.972;2023-07-29T04:28:58;99570.81;;;28.61;47.17
60087;BME280;45960;53.630;55.972;2023-07-29T04:30:00;99568.91;;;28.62;47.50
60087;BME280;45960;53.630;55.972;2023-07-29T04:31:01;99570.94;;;28.66;47.68
60087;BME280;45960;53.630;55.972;2023-07-29T04:32:03;99567.72;;;28.69;47.21
60087;BME280;45960;53.630;55.972;2023-07-29T04:33:04;99575.50;;;28.72;47.51
60087;BME280;45960;53.630;55.972;2023-07-29T04:34:05;99575.03;;;28.75;47.26
60087;BME280;45960;53.630;55.972;2023-07-29T04:35:07;99569.31;;;28.77;46.89
60087;BME280;45960;53.630;55.972;2023-07-29T04:36:11;99573.50;;;28.80;47.14
60087;BME280;45960;53.630;55.972;2023-07-29T04:37:12;99562.03;;;28.83;46.67
60087;BME280;45960;53.630;55.972;2023-07-29T04:38:13;99565.97;;;28.87;46.67
60087;BME280;45960;53.630;55.972;2023-07-29T04:39:14;99572.06;;;28.89;46.56
60087;BME280;45960;53.630;55.972;2023-07-29T04:40:15;99568.00;;;28.91;46.51
60087;BME280;45960;53.630;55.972;2023-07-29T04:41:16;99551.72;;;28.90;46.87
60087;BME280;45960;53.630;55.972;2023-07-29T04:42:18;99561.31;;;28.99;46.43
60087;BME280;45960;53.630;55.972;2023-07-29T04:43:18;99557.50;;;29.00;46.30
60087;BME280;45960;53.630;55.972;2023-07-29T04:44:21;99564.22;;;29.04;46.16
60087;BME280;45960;53.630;55.972;2023-07-29T04:45:22;99547.22;;;29.07;46.46
60087;BME280;45960;53.630;55.972;2023-07-29T04:46:23;99549.53;;;29.10;46.15
60087;BME280;45960;53.630;55.972;2023-07-29T04:47:24;99539.09;;;29.12;46.29
60087;BME280;45960;53.630;55.972;2023-07-29T04:48:25;99543.06;;;29.16;45.86
60087;BME280;45960;53.630;55.972;2023-07-29T04:49:26;99548.31;;;29.18;45.86
60087;BME280;45960;53.630;55.972;2023-07-29T04:50:27;99548.69;;;29.21;46.26
60087;BME280;45960;53.630;55.972;2023-07-29T04:51:28;99545.69;;;29.23;46.24
60087;BME280;45960;53.630;55.972;2023-07-29T04:52:29;99542.44;;;29.26;46.02
60087;BME280;45960;53.630;55.972;2023-07-29T04:53:30;99543.03;;;29.28;46.21
60087;BME280;45960;53.630;55.972;2023-07-29T04:54:32;99541.72;;;29.31;45.92
60087;BME280;45960;53.630;55.972;2023-07-29T04:55:33;99537.91;;;29.32;46.00
60087;BME280;45960;53.630;55.972;2023-07-29T04:56:34;99534.91;;;29.33;45.56
60087;BME280;45960;53.630;55.972;2023-07-29T04:57:35;99537.78;;;29.38;45.60
60087;BME280;45960;53.630;55.972;2023-07-29T04:58:36;99538.13;;;29.42;45.99
60087;BME280;45960;53.630;55.972;2023-07-29T04:59:37;99532.13;;;29.45;46.16
60087;BME280;45960;53.630;55.972;2023-07-29T05:00:38;99538.81;;;29.49;46.40
60087;BME280;45960;53.630;55.972;2023-07-29T05:01:39;99537.28;;;29.53;46.07
60087;BME280;45960;53.630;55.972;2023-07-29T05:02:40;99543.94;;;29.57;45.60
60087;BME280;45960;53.630;55.972;2023-07-29T05:03:41;99541.81;;;29.59;45.88
60087;BME280;45960;53.630;55.972;2023-07-29T05:04:43;99542.91;;;29.58;45.72
60087;BME280;45960;53.630;55.972;2023-07-29T05:05:44;99542.06;;;29.58;45.83
60087;BME280;45960;53.630;55.972;2023-07-29T05:06:45;99544.06;;;29.62;45.65
60087;BME280;45960;53.630;55.972;2023-07-29T05:07:46;99543.88;;;29.64;45.44
60087;BME280;45960;53.630;55.972;2023-07-29T05:08:47;99542.28;;;29.68;45.39
60087;BME280;45960;53.630;55.972;2023-07-29T05:09:48;99540.97;;;29.71;45.68
60087;BME280;45960;53.630;55.972;2023-07-29T05:10:50;99534.47;;;29.77;45.42
60087;BME280;45960;53.630;55.972;2023-07-29T05:11:51;99521.59;;;29.65;45.37
60087;BME280;45960;53.630;55.972;2023-07-29T05:12:52;99542.84;;;29.82;44.77
60087;BME280;45960;53.630;55.972;2023-07-29T05:13:53;99535.19;;;29.84;44.85
60087;BME280;45960;53.630;55.972;2023-07-29T05:14:54;99533.03;;;29.86;44.83
60087;BME280;45960;53.630;55.972;2023-07-29T05:15:55;99537.22;;;29.88;44.69
60087;BME280;45960;53.630;55.972;2023-07-29T05:16:57;99532.53;;;29.89;44.28
60087;BME280;45960;53.630;55.972;2023-07-29T05:17:57;99529.91;;;29.94;44.12
60087;BME280;45960;53.630;55.972;2023-07-29T05:18:59;99534.41;;;30.00;44.64
60087;BME280;45960;53.630;55.972;2023-07-29T05:20:00;99535.59;;;30.04;44.75
60087;BME280;45960;53.630;55.972;2023-07-29T05:21:01;99530.91;;;30.05;43.98
60087;BME280;45960;53.630;55.972;2023-07-29T05:22:02;99521.09;;;30.09;44.30
60087;BME280;45960;53.630;55.972;2023-07-29T05:23:03;99505.19;;;29.99;44.06
60087;BME280;45960;53.630;55.972;2023-07-29T05:24:04;99528.13;;;30.17;44.00
60087;BME280;45960;53.630;55.972;2023-07-29T05:25:06;99526.53;;;30.21;43.75
60087;BME280;45960;53.630;55.972;2023-07-29T05:26:07;99527.50;;;30.26;44.39
60087;BME280;45960;53.630;55.972;2023-07-29T05:27:08;99515.16;;;30.29;43.83
60087;BME280;45960;53.630;55.972;2023-07-29T05:28:09;99520.47;;;30.36;44.21
60087;BME280;45960;53.630;55.972;2023-07-29T05:29:10;99528.03;;;30.40;44.20
60087;BME280;45960;53.630;55.972;2023-07-29T05:30:11;99527.53;;;30.43;43.81
60087;BME280;45960;53.630;55.972;2023-07-29T05:31:12;99524.25;;;30.46;43.52